Time;durP1;ratioP1;P1;durP2;ratioP2;P2;SDS_P1;SDS_P2;PMS_P1;PMS_P2;Temp;Humidity;BMP_temperature;BMP_pressure;BME280_temperature;BME280_humidity;BME280_pressure;Samples;Min_cycle;Max_cycle;Signal;HPM_P1;HPM_P2
2024/01/22 00:02:00;;;;;;;9.73;5.40;;;5.20;99.90;;;5.63;100.00;100500.06;5029685;28;20458;-80
2024/01/22 00:04:27;;;;;;;10.20;5.90;;;5.30;99.90;;;5.79;100.00;100498.19;5030648;28;20041;-78
2024/01/22 00:06:52;;;;;;;12.52;6.38;;;5.30;99.90;;;5.76;100.00;100499.38;5029314;28;20037;-79
2024/01/22 00:09:19;;;;;;;12.63;6.25;;;5.40;99.90;;;5.85;100.00;100494.72;5029566;28;20048;-79
2024/01/22 00:11:44;;;;;;;10.85;5.50;;;5.60;99.90;;;5.88;100.00;100473.53;5029748;28;20041;-79
2024/01/22 00:14:10;;;;;;;9.20;4.30;;;5.60;99.90;;;5.90;100.00;100435.41;5030474;28;20228;-79
2024/01/22 00:16:40;;;;;;;12.65;5.97;;;5.60;99.90;;;6.03;100.00;100478.06;5029148;28;20045;-79
2024/01/22 00:19:07;;;;;;;11.98;5.53;;;5.70;99.90;;;6.03;100.00;100449.13;5030692;28;20029;-79
2024/01/22 00:21:32;;;;;;;11.43;5.30;;;5.70;99.90;;;6.07;100.00;100448.75;5028503;28;20061;-79
2024/01/22 00:23:58;;;;;;;11.05;5.32;;;5.80;99.90;;;6.15;100.00;100435.06;5030247;28;20029;-79
2024/01/22 00:26:24;;;;;;;8.63;5.03;;;5.80;99.90;;;6.19;100.00;100437.22;5025259;28;20393;-79
2024/01/22 00:28:49;;;;;;;10.73;4.95;;;5.90;99.90;;;6.16;100.00;100429.47;5029467;28;20139;-78
2024/01/22 00:31:15;;;;;;;11.80;5.60;;;5.90;99.90;;;6.25;100.00;100429.34;5029782;28;20079;-79
2024/01/22 00:33:43;;;;;;;7.70;4.43;;;5.80;99.90;;;6.22;100.00;100410.78;5029752;28;20390;-79
2024/01/22 00:36:13;;;;;;;8.52;5.75;;;5.90;99.90;;;6.20;100.00;100402.81;5029542;28;20400;-79
2024/01/22 00:38:40;;;;;;;10.88;4.97;;;5.90;99.90;;;6.25;100.00;100424.78;5026845;28;20045;-78
2024/01/22 00:41:06;;;;;;;10.23;6.00;;;5.90;99.90;;;6.35;100.00;100423.59;5029833;28;20096;-78
2024/01/22 00:43:32;;;;;;;14.13;5.47;;;6.00;99.90;;;6.32;100.00;100416.69;5028734;28;20037;-79
2024/01/22 00:46:00;;;;;;;10.77;5.45;;;6.00;99.90;;;6.38;100.00;100399.69;5030032;28;20038;-78
2024/01/22 00:48:26;;;;;;;10.68;5.28;;;6.10;99.90;;;6.25;100.00;100378.72;5027934;28;20033;-79
2024/01/22 00:50:52;;;;;;;10.52;4.90;;;6.00;99.90;;;6.14;100.00;100360.25;5030278;28;20492;-79
2024/01/22 00:53:17;;;;;;;9.93;5.38;;;6.00;99.90;;;6.09;100.00;100336.47;5028159;28;20045;-79
2024/01/22 00:55:43;;;;;;;7.03;4.10;;;6.00;99.90;;;6.11;100.00;100366.06;5029358;28;20392;-78
2024/01/22 00:58:09;;;;;;;10.38;4.30;;;6.00;99.90;;;6.16;100.00;100378.00;5030064;28;20033;-79
2024/01/22 01:00:35;;;;;;;8.50;5.20;;;5.90;99.90;;;6.11;100.00;100352.53;5030048;28;20473;-79
2024/01/22 01:03:01;;;;;;;8.45;4.15;;;5.90;99.90;;;6.11;100.00;100339.84;5029423;28;20041;-79
2024/01/22 01:05:26;;;;;;;7.93;4.20;;;5.90;99.90;;;6.06;100.00;100326.03;5029635;28;20034;-79
2024/01/22 01:07:52;;;;;;;10.27;4.10;;;6.00;99.90;;;6.17;100.00;100325.50;5029435;28;20166;-79
2024/01/22 01:10:18;;;;;;;9.70;4.20;;;6.00;99.90;;;6.25;100.00;100302.00;5029786;28;20443;-79
2024/01/22 01:12:44;;;;;;;8.90;4.15;;;6.10;99.90;;;6.22;100.00;100259.06;5030650;28;20128;-80
2024/01/22 01:15:10;;;;;;;8.93;4.18;;;6.10;99.90;;;6.09;100.00;100230.84;5029004;28;20042;-79
2024/01/22 01:17:36;;;;;;;10.27;4.43;;;6.00;99.90;;;5.81;100.00;100222.69;5028712;28;20116;-79
2024/01/22 01:20:04;;;;;;;6.63;3.60;;;5.70;99.90;;;5.67;100.00;100241.50;5026979;28;20455;-79
2024/01/22 01:22:31;;;;;;;9.20;4.37;;;5.60;99.90;;;5.73;100.00;100273.25;5048561;28;20041;-78
2024/01/22 01:24:57;;;;;;;6.20;3.42;;;5.50;99.90;;;5.64;100.00;100268.97;5033307;28;20045;-79
2024/01/22 01:27:23;;;;;;;10.48;4.70;;;5.50;99.90;;;5.75;100.00;100256.78;5032908;28;20056;-78
2024/01/22 01:29:49;;;;;;;8.05;3.63;;;5.50;99.90;;;5.72;100.00;100251.75;5034281;28;20067;-79
2024/01/22 01:32:14;;;;;;;9.13;4.10;;;5.50;99.90;;;5.80;100.00;100245.38;5032319;28;20113;-77
2024/01/22 01:34:40;;;;;;;7.93;3.65;;;5.70;99.90;;;5.77;100.00;100222.22;5027271;28;20056;-77
2024/01/22 01:37:06;;;;;;;9.60;4.07;;;5.70;99.90;;;5.81;100.00;100198.31;5032750;28;20388;-78
2024/01/22 01:39:31;;;;;;;9.45;4.13;;;5.70;99.90;;;6.05;100.00;100210.59;5033165;28;20061;-78
2024/01/22 01:41:57;;;;;;;8.52;3.80;;;5.80;99.90;;;6.09;100.00;100194.81;5032675;28;20030;-77
2024/01/22 01:44:51;;;;;;;8.85;4.35;;;5.80;99.90;;;6.28;100.00;100193.25;5033357;28;20057;-77
2024/01/22 01:47:18;;;;;;;6.13;3.72;;;6.00;99.90;;;6.28;100.00;100193.25;5033456;28;20025;-77
2024/01/22 01:49:45;;;;;;;9.52;3.80;;;6.00;99.90;;;6.29;100.00;100173.25;5033134;28;20045;-77
2024/01/22 01:52:12;;;;;;;6.97;3.67;;;6.00;99.90;;;6.26;100.00;100142.00;5030732;28;20477;-77
2024/01/22 01:54:42;;;;;;;7.65;3.25;;;6.10;99.90;;;6.41;100.00;100132.88;5017534;28;20045;-77
2024/01/22 01:57:08;;;;;;;7.03;2.88;;;6.20;99.90;;;6.24;100.00;100095.31;5028012;28;20029;-77
2024/01/22 01:59:41;;;;;;;11.07;3.42;;;6.20;99.90;;;6.35;100.00;100129.09;5027595;28;20111;-77
2024/01/22 02:02:07;;;;;;;9.07;3.72;;;6.20;99.90;;;6.57;100.00;100131.69;5027861;28;20412;-77
2024/01/22 02:04:32;;;;;;;8.02;3.88;;;6.20;99.90;;;6.44;100.00;100113.50;5012635;28;20048;-77
2024/01/22 02:06:59;;;;;;;10.13;4.30;;;6.20;99.90;;;6.70;100.00;100139.88;5031919;28;20099;-78
2024/01/22 02:09:49;;;;;;;8.95;3.92;;;6.30;99.90;;;6.78;100.00;100111.75;5029399;28;20045;-77
2024/01/22 02:12:16;;;;;;;7.30;3.72;;;6.40;99.90;;;6.81;100.00;100080.66;5029483;28;20455;-75
2024/01/22 02:14:43;;;;;;;9.70;3.58;;;6.40;99.90;;;6.79;100.00;100074.59;5032559;28;20033;-78
2024/01/22 02:17:09;;;;;;;5.55;3.47;;;6.50;99.90;;;6.76;100.00;100089.41;5028769;28;20469;-78
2024/01/22 02:19:34;;;;;;;8.20;3.70;;;6.50;99.90;;;6.91;100.00;100090.06;5032440;28;20048;-77
2024/01/22 02:22:00;;;;;;;6.15;3.35;;;6.50;99.90;;;6.95;100.00;100038.13;5028750;28;20030;-78
2024/01/22 02:24:26;;;;;;;8.10;3.55;;;6.70;99.90;;;6.96;100.00;100013.50;5026759;28;20393;-79
2024/01/22 02:26:52;;;;;;;6.30;3.10;;;6.60;99.90;;;6.85;100.00;99982.44;5030042;28;20127;-77
2024/01/22 02:29:17;;;;;;;6.43;2.92;;;6.60;99.90;;;7.10;100.00;100008.06;5030788;28;20072;-77
2024/01/22 02:31:45;;;;;;;9.50;3.30;;;6.80;99.90;;;7.23;100.00;100021.63;5025885;28;20044;-77
2024/01/22 02:34:11;;;;;;;;;;;6.80;99.90;;;7.27;100.00;100025.59;5012907;28;20152;-77
2024/01/22 02:36:37;;;;;;;7.40;3.55;;;6.90;99.90;;;7.30;100.00;100014.31;5031675;28;20384;-76
2024/01/22 02:39:03;;;;;;;5.78;2.92;;;6.90;99.90;;;7.21;100.00;99999.31;5024873;28;20103;-77
2024/01/22 02:41:29;;;;;;;6.35;3.30;;;7.00;99.90;;;7.34;100.00;99991.13;5031104;28;20041;-78
2024/01/22 02:43:54;;;;;;;6.22;3.13;;;7.00;99.90;;;7.41;100.00;99982.16;5031152;28;20096;-77
2024/01/22 02:46:20;;;;;;;8.60;3.17;;;7.10;99.90;;;7.52;100.00;99980.66;5031561;28;20041;-77
2024/01/22 02:48:46;;;;;;;7.95;3.28;;;7.10;99.90;;;7.47;100.00;99993.00;5031701;28;20044;-77
2024/01/22 02:51:11;;;;;;;5.60;3.22;;;7.10;99.90;;;7.50;100.00;99999.88;5031902;28;20037;-77
2024/01/22 02:53:37;;;;;;;8.52;3.13;;;7.10;99.90;;;7.48;100.00;99991.94;5031617;28;20595;-76
2024/01/22 02:56:04;;;;;;;5.65;3.58;;;7.10;99.90;;;7.46;100.00;99976.94;5032242;28;20117;-77
2024/01/22 02:58:31;;;;;;;6.25;3.33;;;7.20;99.90;;;7.49;100.00;99974.63;5027056;28;20096;-77
2024/01/22 03:00:57;;;;;;;;;;;7.20;99.90;;;7.65;100.00;99955.34;5013056;28;20120;-78
2024/01/22 03:03:23;;;;;;;7.22;2.65;;;7.30;99.90;;;7.72;100.00;99970.56;4989742;28;20402;-77
2024/01/22 03:05:49;;;;;;;4.82;2.72;;;7.30;99.90;;;7.71;100.00;99940.94;4991636;28;20472;-78
2024/01/22 03:08:15;;;;;;;6.05;2.70;;;7.40;99.90;;;7.81;100.00;99949.44;4991918;28;20045;-76
2024/01/22 03:10:40;;;;;;;6.47;2.70;;;7.50;99.90;;;7.94;100.00;99943.13;5001262;28;20038;-77
2024/01/22 03:13:06;;;;;;;7.15;2.47;;;7.50;99.90;;;7.98;100.00;99940.81;4988465;28;20098;-77
2024/01/22 03:15:32;;;;;;;8.00;3.00;;;7.60;99.90;;;8.01;100.00;99935.75;4991123;28;20046;-77
2024/01/22 03:17:58;;;;;;;4.20;2.22;;;7.60;99.90;;;7.97;100.00;99941.88;4991293;28;20038;-76
2024/01/22 03:20:23;;;;;;;7.82;2.67;;;7.60;99.90;;;8.09;100.00;99931.13;4991125;28;20030;-77
2024/01/22 03:22:49;;;;;;;5.85;2.33;;;7.70;99.90;;;8.09;100.00;99906.66;4989722;28;20034;-76
2024/01/22 03:25:15;;;;;;;4.93;2.05;;;7.70;99.90;;;8.05;100.00;99892.72;4993710;28;20034;-77
2024/01/22 03:27:41;;;;;;;5.32;2.40;;;7.80;99.90;;;8.06;100.00;99891.66;4991410;28;20038;-77
2024/01/22 03:30:07;;;;;;;5.15;2.20;;;7.80;99.90;;;8.18;100.00;99862.72;5001006;28;20501;-77
2024/01/22 03:32:33;;;;;;;4.70;1.90;;;7.90;99.90;;;8.21;100.00;99859.56;4990838;28;20050;-76
2024/01/22 03:34:59;;;;;;;4.72;2.20;;;8.00;99.90;;;8.20;100.00;99917.66;4990938;28;20037;-76
2024/01/22 03:37:24;;;;;;;5.65;2.20;;;8.00;99.90;;;8.24;100.00;99860.19;4991740;28;20125;-77
2024/01/22 03:39:50;;;;;;;3.45;2.20;;;8.00;99.90;;;8.24;100.00;99858.28;4986654;28;20061;-77
2024/01/22 03:42:17;;;;;;;5.13;2.60;;;8.00;99.90;;;8.31;100.00;99855.53;4990124;28;20042;-77
2024/01/22 03:44:43;;;;;;;4.28;1.92;;;8.00;99.90;;;8.34;100.00;99845.03;4989945;28;20109;-78
2024/01/22 03:47:08;;;;;;;4.68;2.28;;;8.10;99.90;;;8.39;100.00;99838.13;4991111;28;20042;-76
2024/01/22 03:49:34;;;;;;;6.50;2.13;;;8.10;99.90;;;8.46;100.00;99841.59;4990151;28;20034;-76
2024/01/22 03:52:00;;;;;;;4.20;1.77;;;8.10;99.90;;;8.47;100.00;99829.69;4990261;28;20516;-77
2024/01/22 03:54:25;;;;;;;3.83;2.00;;;8.20;99.90;;;8.54;100.00;99813.34;4986979;28;20455;-77
2024/01/22 03:56:51;;;;;;;4.13;2.10;;;8.20;99.90;;;8.42;100.00;99827.63;4987123;28;20038;-77
2024/01/22 03:59:18;;;;;;;7.20;2.20;;;8.20;99.90;;;8.43;100.00;99840.16;4991583;28;20400;-77
2024/01/22 04:01:44;;;;;;;5.18;1.80;;;8.20;99.90;;;8.51;100.00;99885.28;4998028;28;20049;-76
2024/01/22 04:04:12;;;;;;;5.93;1.90;;;8.10;99.90;;;8.53;100.00;99842.41;5045221;28;20041;-79
2024/01/22 04:06:38;;;;;;;5.53;1.92;;;8.20;99.90;;;8.44;100.00;99838.28;5029410;28;20104;-76
2024/01/22 04:09:04;;;;;;;5.03;2.50;;;8.20;99.90;;;8.58;100.00;99856.16;5028007;28;20052;-77
2024/01/22 04:11:30;;;;;;;5.20;1.88;;;8.30;99.90;;;8.57;100.00;99829.22;5029694;28;20037;-77
2024/01/22 04:13:55;;;;;;;6.93;2.30;;;8.20;99.90;;;8.66;100.00;99844.16;5008593;28;20420;-78
2024/01/22 04:16:21;;;;;;;4.85;2.20;;;8.30;99.90;;;8.61;100.00;99868.47;5028546;28;20370;-77
2024/01/22 04:18:47;;;;;;;6.80;2.00;;;8.20;99.90;;;8.51;100.00;99852.66;5029062;28;20067;-78
2024/01/22 04:21:12;;;;;;;4.68;2.33;;;8.10;99.90;;;8.49;100.00;99820.28;5030049;28;20037;-77
2024/01/22 04:23:38;;;;;;;3.78;1.80;;;8.10;99.90;;;8.51;100.00;99795.59;5029113;28;20064;-77
2024/01/22 04:26:05;;;;;;;4.60;2.05;;;8.20;99.90;;;8.63;100.00;99806.56;5028871;28;20034;-78
2024/01/22 04:28:31;;;;;;;6.80;2.10;;;8.20;99.90;;;8.53;100.00;99817.13;5024489;28;20149;-79
2024/01/22 04:30:56;;;;;;;6.03;1.90;;;8.20;99.90;;;8.56;100.00;99844.66;5031415;28;20148;-78
2024/01/22 04:33:22;;;;;;;4.18;2.03;;;8.20;99.90;;;8.68;100.00;99831.19;5030065;28;20087;-78
2024/01/22 04:35:50;;;;;;;3.88;1.70;;;8.20;99.90;;;8.57;100.00;99807.47;5012748;28;20045;-78
2024/01/22 04:38:17;;;;;;;3.60;1.80;;;8.20;99.90;;;8.65;100.00;99815.31;5025675;28;20037;-79
2024/01/22 04:40:43;;;;;;;7.63;1.98;;;8.20;99.90;;;8.33;100.00;99759.13;5045170;28;20531;-79
2024/01/22 04:43:08;;;;;;;3.95;1.98;;;8.20;99.90;;;8.68;100.00;99798.53;5029742;28;20033;-80
2024/01/22 04:45:34;;;;;;;7.20;2.28;;;8.20;99.90;;;8.73;100.00;99787.81;5028103;28;20052;-80
2024/01/22 04:48:00;;;;;;;4.57;1.95;;;8.20;99.90;;;8.68;100.00;99816.75;5012181;28;20044;-80
2024/01/22 04:50:26;;;;;;;4.95;2.03;;;8.30;99.90;;;8.69;100.00;99783.88;5012183;28;20029;-78
2024/01/22 04:52:51;;;;;;;4.68;2.17;;;8.40;99.90;;;8.78;100.00;99815.19;5010962;28;20037;-77
2024/01/22 04:55:17;;;;;;;6.65;2.63;;;8.40;99.90;;;8.70;100.00;99791.00;5011470;28;20037;-79
2024/01/22 04:57:43;;;;;;;5.70;1.70;;;8.30;99.90;;;8.68;100.00;99803.97;5011422;28;20396;-77
2024/01/22 05:00:10;;;;;;;4.30;1.80;;;8.30;99.90;;;8.71;100.00;99786.41;5029424;28;20340;-78
2024/01/22 05:02:37;;;;;;;3.22;1.60;;;8.30;99.90;;;8.69;100.00;99778.44;5044046;28;20038;-79
2024/01/22 05:05:04;;;;;;;3.83;1.75;;;8.40;99.90;;;8.75;100.00;99793.03;5028093;28;20470;-78
2024/01/22 05:07:29;;;;;;;4.78;2.13;;;8.30;99.90;;;8.76;100.00;99783.81;5028843;28;20129;-78
2024/01/22 05:10:04;;;;;;;4.47;1.90;;;8.30;99.90;;;8.70;100.00;99769.25;5041578;28;20038;-79
2024/01/22 05:12:31;;;;;;;4.88;2.00;;;8.30;99.90;;;8.75;100.00;99780.28;5026686;28;20421;-78
2024/01/22 05:14:56;;;;;;;3.80;1.55;;;8.40;99.90;;;8.85;100.00;99787.09;5029553;28;20111;-78
2024/01/22 05:17:23;;;;;;;3.45;1.70;;;8.40;99.90;;;8.92;100.00;99776.94;5014684;28;20091;-78
2024/01/22 05:19:49;;;;;;;4.93;2.00;;;8.50;99.90;;;8.98;100.00;99769.78;5026550;28;20243;-78
2024/01/22 05:22:15;;;;;;;4.88;1.48;;;8.60;99.90;;;8.96;100.00;99777.34;5028082;28;21054;-79
2024/01/22 05:24:41;;;;;;;4.18;1.85;;;8.60;99.90;;;8.98;100.00;99781.47;5007269;28;20068;-79
2024/01/22 05:27:09;;;;;;;4.22;1.73;;;8.60;99.90;;;8.95;100.00;99784.66;5028472;28;20398;-79
2024/01/22 05:29:35;;;;;;;4.43;1.70;;;8.60;99.90;;;8.90;100.00;99769.03;5026360;28;20116;-79
2024/01/22 05:32:02;;;;;;;5.75;1.70;;;8.50;99.90;;;8.82;100.00;99769.31;5029008;28;20132;-78
2024/01/22 05:34:28;;;;;;;3.35;1.50;;;8.40;99.90;;;8.72;100.00;99763.59;5029365;28;20045;-79
2024/01/22 05:36:55;;;;;;;5.57;2.13;;;8.30;99.90;;;8.62;100.00;99736.91;5028800;28;20164;-80
2024/01/22 05:39:20;;;;;;;3.53;1.40;;;8.30;99.90;;;8.49;100.00;99778.63;5029165;28;20037;-81
2024/01/22 05:41:46;;;;;;;4.47;1.70;;;8.20;99.90;;;8.31;100.00;99738.69;5029299;28;20129;-78
2024/01/22 05:44:12;;;;;;;4.57;1.52;;;8.00;99.90;;;8.23;100.00;99760.72;5028941;28;20473;-78
2024/01/22 05:46:37;;;;;;;3.75;1.98;;;7.90;99.90;;;8.03;100.00;99732.63;5022356;28;20043;-79
2024/01/22 05:49:03;;;;;;;2.83;1.42;;;7.70;99.90;;;7.87;100.00;99734.03;5029364;28;20068;-77
2024/01/22 05:51:29;;;;;;;4.75;1.95;;;7.60;99.90;;;7.83;100.00;99713.00;5029060;28;20124;-78
2024/01/22 05:53:54;;;;;;;5.95;1.90;;;7.50;99.90;;;7.66;100.00;99770.53;5029563;28;20029;-78
2024/01/22 05:56:25;;;;;;;4.25;1.65;;;7.30;99.90;;;7.60;100.00;99708.97;5026940;28;20040;-77
2024/01/22 05:58:55;;;;;;;7.60;1.90;;;7.20;99.90;;;7.49;100.00;99738.47;5025572;28;20477;-77
2024/01/22 06:01:22;;;;;;;5.22;2.10;;;7.20;99.90;;;7.55;100.00;99711.50;5027827;28;20507;-81
2024/01/22 06:03:48;;;;;;;3.27;1.70;;;7.10;99.90;;;7.50;100.00;99712.19;5027358;28;20178;-79
2024/01/22 06:06:14;;;;;;;5.28;1.83;;;7.20;99.90;;;7.46;100.00;99705.53;5011216;28;20291;-79
2024/01/22 06:08:42;;;;;;;4.25;1.92;;;7.20;99.90;;;7.44;100.00;99699.50;5004392;28;20041;-79
2024/01/22 06:11:08;;;;;;;5.60;2.45;;;7.10;99.90;;;7.40;100.00;99696.38;5035059;28;20033;-78
2024/01/22 06:13:39;;;;;;;3.92;1.90;;;7.10;99.90;;;7.37;100.00;99702.25;5034700;28;20046;-78
2024/01/22 06:16:15;;;;;;;5.18;2.30;;;7.10;99.90;;;7.52;100.00;99707.38;5030963;28;20057;-78
2024/01/22 06:18:42;;;;;;;3.83;1.70;;;7.10;99.90;;;7.49;100.00;99689.63;5030129;28;20033;-77
2024/01/22 06:21:08;;;;;;;3.83;1.63;;;7.10;99.90;;;7.55;100.00;99708.78;5030227;28;20040;-77
2024/01/22 06:23:34;;;;;;;4.72;2.25;;;7.20;99.90;;;7.56;100.00;99686.88;5027484;28;20041;-77
2024/01/22 06:26:01;;;;;;;5.13;2.10;;;7.20;99.90;;;7.62;100.00;99677.84;5013431;28;20124;-77
2024/01/22 06:28:31;;;;;;;5.47;2.13;;;7.20;99.90;;;7.66;100.00;99659.22;5003014;28;20034;-77
2024/01/22 06:30:57;;;;;;;4.68;1.50;;;7.20;99.90;;;7.67;100.00;99660.03;5025365;28;20041;-79
2024/01/22 06:33:23;;;;;;;4.70;1.70;;;7.30;99.90;;;7.67;100.00;99674.47;5027926;28;20045;-77
2024/01/22 06:35:49;;;;;;;6.80;1.92;;;7.30;99.90;;;7.68;100.00;99659.00;5031026;28;20539;-79
2024/01/22 06:38:19;;;;;;;4.38;1.90;;;7.30;99.90;;;7.83;100.00;99656.78;5041414;28;20390;-78
2024/01/22 06:40:45;;;;;;;6.85;2.55;;;7.40;99.90;;;7.88;100.00;99673.22;5032353;28;20419;-79
2024/01/22 06:43:12;;;;;;;5.97;2.55;;;7.40;99.90;;;7.99;100.00;99670.84;5033653;28;20029;-79
2024/01/22 06:45:38;;;;;;;4.82;1.70;;;7.50;99.90;;;7.71;100.00;99628.72;5032839;28;20033;-80
2024/01/22 06:48:04;;;;;;;4.32;1.77;;;7.50;99.90;;;8.06;100.00;99641.72;5032360;28;20025;-80
2024/01/22 06:50:30;;;;;;;7.80;2.33;;;7.60;99.90;;;8.09;100.00;99645.88;5014350;28;20038;-79
2024/01/22 06:52:56;;;;;;;4.03;1.92;;;7.70;99.90;;;8.23;100.00;99657.44;5032516;28;20040;-81
2024/01/22 06:55:23;;;;;;;4.80;2.05;;;7.80;99.90;;;7.98;100.00;99672.72;5014674;28;20033;-79
2024/01/22 06:57:50;;;;;;;5.70;2.00;;;7.70;99.90;;;8.19;100.00;99659.78;5032872;28;20397;-79
2024/01/22 07:00:19;;;;;;;4.95;1.83;;;7.70;99.90;;;8.21;100.00;99679.41;5032098;28;20044;-78
2024/01/22 07:02:45;;;;;;;5.00;1.80;;;7.80;99.90;;;8.11;100.00;99663.63;5012698;28;20049;-79
2024/01/22 07:05:12;;;;;;;3.33;1.27;;;7.70;99.90;;;8.14;100.00;99667.78;5031632;28;20034;-79
2024/01/22 07:07:38;;;;;;;3.28;1.45;;;7.70;99.90;;;8.30;100.00;99677.22;5032127;28;20052;-78
2024/01/22 07:10:06;;;;;;;4.72;1.90;;;7.80;99.90;;;8.41;100.00;99652.00;5031211;28;20077;-80
2024/01/22 07:12:31;;;;;;;3.08;1.55;;;8.00;99.90;;;8.31;100.00;99647.09;5032038;28;20060;-80
2024/01/22 07:14:57;;;;;;;4.90;1.35;;;8.00;99.90;;;8.51;100.00;99677.88;5027821;28;20400;-80
2024/01/22 07:17:23;;;;;;;4.03;1.80;;;8.20;99.90;;;8.71;100.00;99702.91;5012548;28;20519;-79
2024/01/22 07:19:49;;;;;;;5.32;1.70;;;8.20;99.90;;;8.72;100.00;99696.41;5031294;28;20041;-79
2024/01/22 07:22:15;;;;;;;1.80;0.90;;;8.30;99.90;;;8.81;100.00;99696.94;5032262;28;20041;-79
2024/01/22 07:24:42;;;;;;;4.68;1.75;;;8.40;99.90;;;8.94;100.00;99704.09;5031688;28;20038;-79
2024/01/22 07:27:08;;;;;;;3.67;1.02;;;8.50;99.90;;;8.91;100.00;99720.88;5030580;28;20041;-79
2024/01/22 07:29:34;;;;;;;3.33;1.20;;;8.50;99.90;;;8.95;100.00;99699.50;5033104;28;20435;-79
2024/01/22 07:32:00;;;;;;;3.95;1.20;;;8.50;99.90;;;8.96;100.00;99668.53;5026435;28;20045;-82
2024/01/22 07:34:26;;;;;;;2.50;1.20;;;8.60;99.90;;;9.06;100.00;99696.00;5030843;28;20037;-79
2024/01/22 07:36:52;;;;;;;4.35;1.50;;;8.60;99.90;;;9.00;100.00;99691.47;5032255;28;20037;-81
2024/01/22 07:39:19;;;;;;;4.00;1.42;;;8.70;99.90;;;8.86;100.00;99702.53;5011261;28;20355;-82
2024/01/22 07:41:45;;;;;;;3.17;1.40;;;8.60;99.90;;;8.94;100.00;99716.88;5047268;28;20063;-81
2024/01/22 07:44:11;;;;;;;2.45;1.10;;;8.60;99.90;;;9.01;100.00;99691.22;5029464;28;20059;-80
2024/01/22 07:46:38;;;;;;;4.13;1.50;;;8.60;99.90;;;9.01;100.00;99688.50;5030964;28;20115;-79
2024/01/22 07:49:03;;;;;;;2.75;1.10;;;8.60;99.90;;;9.07;100.00;99687.63;5029675;28;20048;-80
2024/01/22 07:51:29;;;;;;;2.75;1.20;;;8.60;99.90;;;8.91;100.00;99683.66;5031572;28;20354;-83
2024/01/22 07:53:55;;;;;;;3.47;1.08;;;8.60;99.90;;;9.02;100.00;99692.91;5032016;28;20098;-81
2024/01/22 07:56:21;;;;;;;2.53;1.00;;;8.70;99.90;;;9.13;100.00;99720.41;5031842;28;20029;-83
2024/01/22 07:58:47;;;;;;;1.58;1.08;;;8.80;99.90;;;9.13;100.00;99687.75;5031635;28;20043;-80
2024/01/22 08:01:14;;;;;;;2.05;0.90;;;8.70;99.90;;;9.09;100.00;99681.94;5031558;28;20422;-80
2024/01/22 08:03:40;;;;;;;2.55;1.08;;;8.70;99.90;;;9.07;100.00;99709.38;5029563;28;20041;-81
2024/01/22 08:06:06;;;;;;;4.70;1.20;;;8.70;99.90;;;9.08;100.00;99710.19;5026820;28;20038;-79
2024/01/22 08:08:31;;;;;;;2.17;1.08;;;8.70;99.90;;;8.95;100.00;99667.69;5028543;28;20037;-79
2024/01/22 08:10:57;;;;;;;5.47;1.80;;;8.60;99.90;;;9.05;100.00;99708.78;5031041;28;20034;-81
2024/01/22 08:13:23;;;;;;;3.75;1.50;;;8.70;99.90;;;9.06;100.00;99707.72;5030917;28;20057;-81
2024/01/22 08:15:50;;;;;;;1.83;1.20;;;8.70;99.90;;;9.10;100.00;99702.63;5030219;28;20033;-81
2024/01/22 08:18:16;;;;;;;2.55;1.10;;;8.70;99.90;;;9.10;100.00;99731.75;5030848;28;20551;-79
2024/01/22 08:20:42;;;;;;;2.47;1.08;;;8.70;99.90;;;9.15;100.00;99710.13;5027194;28;20041;-82
2024/01/22 08:23:09;;;;;;;2.55;0.98;;;8.70;99.90;;;9.17;100.00;99708.84;5030657;28;20452;-80
2024/01/22 08:25:36;;;;;;;1.73;0.90;;;8.70;99.90;;;8.96;100.00;99712.88;5030894;28;20088;-81
2024/01/22 08:28:02;;;;;;;3.70;1.15;;;8.50;99.90;;;8.83;100.00;99713.03;5029655;28;20038;-80
2024/01/22 08:30:28;;;;;;;3.72;1.20;;;8.40;99.90;;;8.69;100.00;99696.88;5030662;28;20041;-80
2024/01/22 08:32:54;;;;;;;3.85;1.35;;;8.30;99.90;;;8.73;100.00;99710.84;5030689;28;20033;-82
2024/01/22 08:35:21;;;;;;;2.25;1.10;;;8.20;99.90;;;8.77;100.00;99712.91;5031709;28;20041;-81
2024/01/22 08:37:54;;;;;;;2.95;1.10;;;8.30;99.90;;;8.91;100.00;99713.56;5031192;28;20045;-80
2024/01/22 08:40:23;;;;;;;2.75;1.77;;;8.40;99.90;;;8.92;100.00;99714.38;5028951;28;20468;-78
2024/01/22 08:42:54;;;;;;;2.03;1.08;;;8.40;99.90;;;8.79;100.00;99701.78;5013221;28;20045;-81
2024/01/22 08:45:22;;;;;;;1.80;0.98;;;8.40;99.90;;;8.62;100.00;99696.97;5029520;28;20429;-79
2024/01/22 08:47:49;;;;;;;2.05;1.30;;;8.30;99.90;;;8.37;100.00;99691.56;5030109;28;20033;-80
2024/01/22 08:50:21;;;;;;;1.85;0.98;;;8.20;99.90;;;8.32;100.00;99702.28;5030651;28;20090;-79
2024/01/22 08:52:48;;;;;;;2.67;1.20;;;8.00;99.90;;;8.24;100.00;99692.53;5030248;28;20033;-80
2024/01/22 08:55:15;;;;;;;3.22;1.40;;;7.90;99.90;;;8.25;100.00;99687.94;5029819;28;20155;-79
2024/01/22 08:57:44;;;;;;;2.10;1.30;;;7.80;99.90;;;8.19;100.00;99676.09;5030895;28;20037;-81
2024/01/22 09:00:11;;;;;;;3.72;1.27;;;7.80;99.90;;;8.26;100.00;99684.97;5030445;28;20037;-82
2024/01/22 09:02:42;;;;;;;4.80;1.27;;;7.80;99.90;;;8.28;100.00;99679.34;5009401;28;20128;-80
2024/01/22 09:05:11;;;;;;;3.05;1.20;;;7.90;99.90;;;8.40;100.00;99693.00;5028348;28;20064;-79
2024/01/22 09:07:38;;;;;;;4.60;1.20;;;8.00;99.90;;;8.40;100.00;99696.53;5024024;28;20087;-78
2024/01/22 09:10:07;;;;;;;1.98;1.05;;;8.00;99.90;;;8.33;100.00;99685.75;5030144;28;20037;-78
2024/01/22 09:12:36;;;;;;;3.05;1.00;;;8.00;99.90;;;8.34;100.00;99692.84;5030003;28;20041;-78
2024/01/22 09:15:04;;;;;;;2.00;1.02;;;8.00;99.90;;;8.24;100.00;99695.25;5019546;28;20040;-77
2024/01/22 09:17:30;;;;;;;2.60;1.20;;;7.90;99.90;;;8.23;100.00;99692.78;5028434;28;20120;-81
2024/01/22 09:19:57;;;;;;;4.18;1.25;;;7.80;99.90;;;8.19;100.00;99703.25;5012534;28;20049;-80
2024/01/22 09:22:23;;;;;;;4.13;1.27;;;7.80;99.90;;;8.25;100.00;99685.22;5029961;28;20034;-81
2024/01/22 09:24:50;;;;;;;2.15;1.08;;;7.70;99.90;;;8.15;100.00;99686.56;5021165;28;20057;-80
2024/01/22 09:27:15;;;;;;;3.13;1.02;;;7.70;99.90;;;8.19;100.00;99685.03;5025103;28;20038;-79
2024/01/22 09:29:41;;;;;;;2.33;1.02;;;7.70;99.90;;;8.11;100.00;99682.63;5042576;28;20392;-79
2024/01/22 09:32:10;;;;;;;3.67;1.17;;;7.70;99.90;;;8.10;100.00;99685.59;5042046;28;20034;-80
2024/01/22 09:34:37;;;;;;;3.40;1.20;;;7.70;99.90;;;8.05;100.00;99675.38;5008704;28;20041;-82
2024/01/22 09:37:03;;;;;;;2.63;1.98;;;7.70;99.90;;;8.12;100.00;99670.72;5029555;28;20041;-79
2024/01/22 09:39:30;;;;;;;2.97;1.05;;;7.60;99.90;;;8.20;100.00;99666.88;5030603;28;20049;-80
2024/01/22 09:41:57;;;;;;;4.38;1.40;;;7.70;99.90;;;8.20;100.00;99659.53;5011630;28;20047;-81
2024/01/22 09:44:25;;;;;;;2.83;1.17;;;7.70;99.90;;;8.19;100.00;99660.59;5033351;28;20120;-80
2024/01/22 09:46:52;;;;;;;;;;;7.70;99.90;;;8.26;100.00;99660.53;5033330;28;20034;-79
2024/01/22 09:49:18;;;;;;;1.73;0.90;;;7.80;99.90;;;8.32;100.00;99662.34;5033857;28;20019;-78
2024/01/22 09:51:45;;;;;;;1.85;1.10;;;7.90;99.90;;;8.50;100.00;99660.72;5011425;28;20098;-78
2024/01/22 09:54:23;;;;;;;2.22;0.80;;;8.00;99.90;;;8.58;100.00;99654.97;5033677;28;20538;-79
2024/01/22 09:56:54;;;;;;;2.17;1.05;;;8.10;99.90;;;8.56;100.00;99658.97;5035871;28;20041;-79
2024/01/22 09:59:23;;;;;;;4.25;1.40;;;8.20;99.90;;;8.64;100.00;99691.28;5010107;28;20405;-81
2024/01/22 10:01:51;;;;;;;2.25;1.15;;;8.20;99.90;;;8.72;100.00;99669.22;5033402;28;20129;-81
2024/01/22 10:04:17;;;;;;;2.08;0.68;;;8.30;99.90;;;8.71;100.00;99669.47;5035616;28;20041;-80
2024/01/22 10:06:46;;;;;;;3.05;1.00;;;8.40;99.90;;;8.90;100.00;99675.69;5030467;28;20057;-80
2024/01/22 10:09:15;;;;;;;3.83;1.00;;;8.40;99.90;;;8.91;100.00;99682.81;5033029;28;20032;-79
2024/01/22 10:11:46;;;;;;;3.97;1.33;;;8.40;99.90;;;8.84;100.00;99671.19;5031222;28;20031;-79
2024/01/22 10:14:12;;;;;;;1.88;0.73;;;8.50;99.90;;;9.02;100.00;99668.44;5033322;28;20061;-79
2024/01/22 10:16:38;;;;;;;3.75;1.00;;;8.60;99.90;;;8.97;100.00;99662.84;5048720;28;20029;-80
2024/01/22 10:19:07;;;;;;;3.20;0.90;;;8.60;99.90;;;9.15;100.00;99682.91;5033230;28;20045;-80
2024/01/22 10:21:37;;;;;;;3.05;1.17;;;8.60;99.90;;;9.07;100.00;99698.50;5031238;28;20140;-78
2024/01/22 10:24:06;;;;;;;3.03;1.00;;;8.60;99.90;;;9.23;100.00;99670.88;5030742;28;20041;-79